Time;durP1;ratioP1;P1;durP2;ratioP2;P2;SDS_P1;SDS_P2;PMS_P1;PMS_P2;Temp;Humidity;BMP_temperature;BMP_pressure;BME280_temperature;BME280_humidity;BME280_pressure;Samples;Min_cycle;Max_cycle;Signal;HPM_P1;HPM_P2
2021/04/22 00:00:25;;;;;;;19.15;4.90;;;;;;;3.81;78.19;101856.47;5049424;28;20127;-81
2021/04/22 00:02:51;;;;;;;18.10;4.30;;;;;;;3.82;78.30;101860.81;5063708;28;20118;-83
2021/04/22 00:05:41;;;;;;;18.45;5.20;;;;;;;3.74;78.08;101863.13;5064675;28;20043;-79
2021/04/22 00:08:08;;;;;;;26.42;5.47;;;;;;;3.65;78.85;101861.00;5046897;28;20053;-83
2021/04/22 00:10:41;;;;;;;23.05;5.18;;;;;;;3.66;78.90;101870.69;5051537;28;20608;-80
2021/04/22 00:13:07;;;;;;;26.67;5.55;;;;;;;3.62;78.59;101866.50;5069716;28;20087;-80
2021/04/22 00:15:32;;;;;;;16.98;5.35;;;;;;;3.61;79.09;101864.81;5069435;28;20311;-80
2021/04/22 00:17:58;;;;;;;20.70;4.72;;;;;;;3.61;78.70;101867.47;5047081;28;20040;-76
2021/04/22 00:20:28;;;;;;;15.63;4.93;;;;;;;3.58;79.04;101865.00;5050419;28;20039;-79
2021/04/22 00:22:54;;;;;;;20.08;5.32;;;;;;;3.57;79.27;101863.31;5050015;28;20037;-81
2021/04/22 00:25:19;;;;;;;21.17;5.15;;;;;;;3.54;79.68;101868.75;5051774;28;20036;-77
2021/04/22 00:27:45;;;;;;;19.38;5.43;;;;;;;3.47;79.74;101868.28;5069112;28;20363;-79
2021/04/22 00:30:13;;;;;;;14.90;4.90;;;;;;;3.46;79.54;101871.91;5050690;28;20292;-82
2021/04/22 00:32:39;;;;;;;16.65;4.57;;;;;;;3.50;79.76;101867.25;5069077;28;20074;-84
2021/04/22 00:35:07;;;;;;;14.93;4.82;;;;;;;3.36;79.55;101863.63;5068671;28;20032;-83
2021/04/22 00:37:32;;;;;;;22.38;6.47;;;;;;;3.48;79.82;101866.47;5048152;28;20041;-78
2021/04/22 00:39:58;;;;;;;15.48;4.53;;;;;;;3.45;79.81;101864.88;5048693;28;20186;-81
2021/04/22 00:42:23;;;;;;;18.95;6.03;;;;;;;3.41;79.63;101873.13;5045482;28;20047;-80
2021/04/22 00:44:49;;;;;;;19.13;5.35;;;;;;;3.33;79.99;101871.75;5029981;28;20047;-80
2021/04/22 00:47:15;;;;;;;16.85;4.57;;;;;;;3.37;80.02;101878.63;5063145;28;20131;-82
2021/04/22 00:49:42;;;;;;;18.30;5.38;;;;;;;3.39;79.75;101879.38;5064346;28;20182;-83
2021/04/22 00:52:09;;;;;;;18.30;4.85;;;;;;;3.35;80.46;101877.84;5046297;28;20069;-82
2021/04/22 00:54:38;;;;;;;13.85;4.57;;;;;;;3.40;80.75;101882.88;5045680;28;20186;-78
2021/04/22 00:57:03;;;;;;;14.73;4.72;;;;;;;3.37;80.23;101878.63;5063494;28;20052;-83
2021/04/22 00:59:29;;;;;;;21.42;4.95;;;;;;;3.40;80.30;101888.19;5064647;28;20036;-78
2021/04/22 01:01:54;;;;;;;21.13;5.70;;;;;;;3.43;80.41;101889.81;5040736;28;20044;-76
2021/04/22 01:04:19;;;;;;;15.60;5.20;;;;;;;3.42;80.62;101893.38;5063341;28;20132;-82
2021/04/22 01:06:46;;;;;;;17.67;5.53;;;;;;;3.43;80.58;101889.81;5046439;28;20090;-79
2021/04/22 01:09:14;;;;;;;17.90;5.10;;;;;;;3.39;80.35;101887.34;5028062;28;20094;-76
2021/04/22 01:11:41;;;;;;;19.75;5.72;;;;;;;3.34;80.66;101894.72;5046268;28;20488;-83
2021/04/22 01:14:07;;;;;;;18.10;5.13;;;;;;;3.32;80.43;101893.94;5045855;28;20347;-81
2021/04/22 01:16:34;;;;;;;20.38;5.18;;;;;;;3.32;80.79;101893.09;5061437;28;20033;-82
2021/04/22 01:18:59;;;;;;;23.25;5.95;;;;;;;3.31;80.65;101886.06;5061731;28;20051;-80
2021/04/22 01:21:26;;;;;;;20.63;5.80;;;;;;;3.35;81.16;101892.91;5061729;28;20040;-79
2021/04/22 01:23:52;;;;;;;20.02;5.57;;;;;;;3.34;80.44;101900.03;5064327;28;20040;-80
2021/04/22 01:26:20;;;;;;;18.25;5.10;;;;;;;3.28;80.47;101904.81;5062656;28;20247;-83
2021/04/22 01:28:46;;;;;;;15.52;5.93;;;;;;;3.30;80.58;101900.28;5067431;28;20059;-79
2021/04/22 01:31:12;;;;;;;17.50;5.60;;;;;;;3.28;80.35;101908.34;5063646;28;20045;-79
2021/04/22 01:33:38;;;;;;;19.58;5.45;;;;;;;3.33;80.59;101900.94;5045809;28;20048;-83
2021/04/22 01:36:04;;;;;;;14.63;5.25;;;;;;;3.33;81.02;101918.66;5046901;28;20044;-77
2021/04/22 01:38:30;;;;;;;21.58;5.60;;;;;;;3.29;81.10;101909.19;5063865;28;20446;-80
2021/04/22 01:40:56;;;;;;;18.80;5.72;;;;;;;3.29;80.87;101912.69;5062520;28;20047;-79
2021/04/22 01:43:22;;;;;;;20.10;5.47;;;;;;;3.31;81.18;101909.94;5040854;28;20064;-79
2021/04/22 01:45:47;;;;;;;19.85;5.85;;;;;;;3.27;81.01;101919.03;5063237;28;20052;-84
2021/04/22 01:48:14;;;;;;;20.73;6.32;;;;;;;3.20;81.23;101913.25;5066642;28;20079;-80
2021/04/22 01:50:39;;;;;;;19.05;6.35;;;;;;;3.20;81.29;101893.81;5067731;28;20126;-81
2021/04/22 01:53:06;;;;;;;17.63;5.32;;;;;;;3.18;81.35;101907.16;5046723;28;20056;-78
2021/04/22 01:55:37;;;;;;;24.95;7.30;;;;;;;3.14;82.02;101905.66;5049086;28;20055;-84
2021/04/22 01:58:05;;;;;;;21.50;5.90;;;;;;;3.09;81.02;101905.03;5059602;28;20041;-80
2021/04/22 02:00:36;;;;;;;18.90;6.18;;;;;;;3.06;81.57;101910.53;5046017;28;20567;-79
2021/04/22 02:03:04;;;;;;;24.50;6.07;;;;;;;3.06;81.90;101915.84;5066213;28;21099;-77
2021/04/22 02:05:30;;;;;;;19.45;5.65;;;;;;;3.09;82.06;101908.56;5066724;28;20083;-83
2021/04/22 02:07:55;;;;;;;22.05;6.38;;;;;;;3.08;81.71;101909.50;5049684;28;20049;-77
2021/04/22 02:10:21;;;;;;;19.52;5.28;;;;;;;2.84;82.11;101906.44;5069867;28;20388;-76
2021/04/22 02:12:47;;;;;;;21.48;6.00;;;;;;;2.93;82.48;101902.41;5067231;28;20036;-76
2021/04/22 02:15:18;;;;;;;20.23;5.75;;;;;;;3.01;82.46;101908.13;5043222;28;20041;-83
2021/04/22 02:17:44;;;;;;;18.00;5.53;;;;;;;2.96;82.57;101901.38;5068403;28;20025;-77
2021/04/22 02:20:12;;;;;;;23.33;6.25;;;;;;;2.94;82.69;101912.94;5065323;28;20086;-76
2021/04/22 02:22:38;;;;;;;21.50;6.03;;;;;;;2.88;82.75;101910.66;5067498;28;20484;-78
2021/04/22 02:25:06;;;;;;;20.10;5.95;;;;;;;2.88;82.67;101918.59;5067040;28;20123;-80
2021/04/22 02:27:32;;;;;;;20.57;6.03;;;;;;;2.90;82.87;101921.16;5068018;28;20040;-79
2021/04/22 02:29:58;;;;;;;16.42;6.38;;;;;;;2.95;82.78;101919.09;5067706;28;20370;-81
2021/04/22 02:32:23;;;;;;;17.20;6.07;;;;;;;2.90;82.77;101924.66;5068015;28;20040;-81
2021/04/22 02:34:48;;;;;;;19.52;6.07;;;;;;;2.86;82.80;101923.13;5050647;28;20058;-80
2021/04/22 02:37:14;;;;;;;24.10;6.95;;;;;;;2.84;83.26;101922.34;5068492;28;20049;-81
2021/04/22 02:39:39;;;;;;;19.30;5.75;;;;;;;2.78;83.13;101922.69;5070970;28;20036;-78
2021/04/22 02:42:05;;;;;;;22.10;6.75;;;;;;;2.79;83.62;101924.44;5070989;28;20052;-79
2021/04/22 02:44:30;;;;;;;23.10;7.03;;;;;;;2.75;83.30;101914.91;5052433;28;20033;-79
2021/04/22 02:46:55;;;;;;;16.33;5.53;;;;;;;2.68;82.86;101922.38;5048176;28;20047;-80
2021/04/22 02:49:21;;;;;;;17.48;6.22;;;;;;;2.69;84.01;101917.91;5068362;28;20534;-77
2021/04/22 02:51:46;;;;;;;19.38;5.97;;;;;;;2.70;83.64;101919.63;5053321;28;20127;-81
2021/04/22 02:54:12;;;;;;;16.58;6.13;;;;;;;2.74;83.99;101921.16;5048531;28;20060;-79
2021/04/22 02:56:37;;;;;;;17.48;6.22;;;;;;;2.67;83.75;101933.88;5071185;28;20086;-80
2021/04/22 02:59:03;;;;;;;24.60;6.85;;;;;;;2.72;84.00;101929.19;5068475;28;20460;-78
2021/04/22 03:01:28;;;;;;;23.50;5.80;;;;;;;2.70;83.27;101927.56;5060362;28;20041;-77
2021/04/22 03:03:53;;;;;;;23.83;5.95;;;;;;;2.65;83.92;101932.28;5069388;28;20136;-80
2021/04/22 03:06:19;;;;;;;20.52;6.28;;;;;;;2.75;84.46;101927.31;5069805;28;20094;-79
2021/04/22 03:08:44;;;;;;;23.98;6.25;;;;;;;2.77;84.25;101933.41;5070725;28;20485;-77
2021/04/22 03:11:12;;;;;;;15.52;5.75;;;;;;;2.82;84.27;101928.66;5069042;28;20132;-80
2021/04/22 03:13:38;;;;;;;14.77;5.90;;;;;;;2.79;84.06;101927.06;5065256;28;20036;-79
2021/04/22 03:16:04;;;;;;;18.02;6.15;;;;;;;2.80;84.06;101930.56;5046644;28;20043;-76
2021/04/22 03:18:29;;;;;;;23.70;6.93;;;;;;;2.76;84.24;101936.97;5061705;28;20052;-78
2021/04/22 03:20:54;;;;;;;22.65;6.35;;;;;;;2.80;84.48;101933.22;5047751;28;20056;-80
2021/04/22 03:23:20;;;;;;;17.90;6.35;;;;;;;2.85;84.33;101931.16;5047140;28;20048;-80
2021/04/22 03:25:45;;;;;;;23.27;7.03;;;;;;;2.88;84.38;101934.50;5047903;28;20497;-79
2021/04/22 03:28:11;;;;;;;22.30;6.85;;;;;;;2.90;83.93;101931.75;5033591;28;20080;-77
2021/04/22 03:30:36;;;;;;;23.50;6.72;;;;;;;2.91;84.31;101921.06;5066403;28;20492;-79
2021/04/22 03:33:03;;;;;;;26.83;7.60;;;;;;;2.89;83.81;101930.91;5067103;28;20033;-76
2021/04/22 03:35:29;;;;;;;25.85;7.80;;;;;;;2.91;84.40;101921.06;5046806;28;20124;-79
2021/04/22 03:37:55;;;;;;;27.40;6.90;;;;;;;2.89;84.13;101925.59;5052135;28;20155;-78
2021/04/22 03:40:22;;;;;;;25.33;7.53;;;;;;;2.87;84.21;101937.22;5047821;28;20500;-76
2021/04/22 03:42:48;;;;;;;19.30;6.50;;;;;;;2.83;84.18;101930.41;5021202;28;20398;-80
2021/04/22 03:45:14;;;;;;;27.00;6.90;;;;;;;2.69;85.03;101924.06;5065297;28;20044;-79
2021/04/22 03:47:41;;;;;;;16.30;7.38;;;;;;;2.77;84.64;101941.34;5069991;28;20041;-78
2021/04/22 03:50:09;;;;;;;21.77;6.47;;;;;;;2.94;84.41;101944.75;5048096;28;20766;-79
2021/04/22 03:52:35;;;;;;;27.23;7.30;;;;;;;2.92;84.65;101941.34;5062900;28;20778;-77
2021/04/22 03:55:02;;;;;;;20.67;7.00;;;;;;;2.91;84.70;101944.94;5063987;28;20126;-83
2021/04/22 03:57:27;;;;;;;22.25;7.47;;;;;;;2.97;84.12;101950.84;5051412;28;20045;-77
2021/04/22 03:59:53;;;;;;;23.85;7.53;;;;;;;3.04;84.18;101947.72;5044614;28;20041;-75
2021/04/22 04:02:19;;;;;;;22.35;8.05;;;;;;;3.10;84.10;101944.72;5043311;28;20491;-80
2021/04/22 04:04:45;;;;;;;24.83;6.95;;;;;;;3.07;84.12;101944.06;5062999;28;20050;-75
2021/04/22 04:07:10;;;;;;;24.17;6.88;;;;;;;3.09;84.08;101942.19;5062611;28;20131;-82
2021/04/22 04:09:35;;;;;;;23.05;7.32;;;;;;;3.06;84.15;101947.66;5050515;28;20044;-80
2021/04/22 04:12:01;;;;;;;19.70;6.65;;;;;;;3.06;84.15;101952.97;5048597;28;20117;-79
2021/04/22 04:14:26;;;;;;;19.83;6.53;;;;;;;2.87;84.31;101946.03;5043086;28;20091;-75
2021/04/22 04:16:51;;;;;;;22.27;7.55;;;;;;;2.93;84.69;101943.06;5050801;28;20036;-78
2021/04/22 04:19:17;;;;;;;23.85;6.93;;;;;;;3.02;84.13;101947.00;5065215;28;20137;-77
2021/04/22 04:21:42;;;;;;;20.17;7.78;;;;;;;3.05;83.72;101951.22;5066040;28;20432;-79
2021/04/22 04:24:08;;;;;;;23.80;6.82;;;;;;;3.05;83.74;101946.81;5046916;28;20033;-77
2021/04/22 04:26:33;;;;;;;22.55;6.90;;;;;;;3.06;83.78;101940.56;5065188;28;20037;-75
2021/04/22 04:28:59;;;;;;;29.48;8.35;;;;;;;3.10;83.55;101944.72;5063734;28;20144;-79
2021/04/22 04:31:24;;;;;;;23.27;7.53;;;;;;;3.14;83.80;101942.78;5046702;28;20045;-80
2021/04/22 04:33:51;;;;;;;22.48;8.50;;;;;;;3.11;83.48;101940.31;5046523;28;20048;-80
2021/04/22 04:36:16;;;;;;;23.58;8.40;;;;;;;3.15;83.60;101947.13;5050954;28;20040;-78
2021/04/22 04:38:42;;;;;;;28.77;8.15;;;;;;;3.13;83.60;101954.31;5068278;28;20051;-80
2021/04/22 04:41:07;;;;;;;25.30;7.63;;;;;;;3.20;83.97;101952.19;5068784;28;20067;-78
2021/04/22 04:43:33;;;;;;;19.35;7.00;;;;;;;3.17;83.26;101953.22;5048407;28;20484;-79
2021/04/22 04:45:58;;;;;;;27.70;9.15;;;;;;;3.17;84.06;101954.06;5029487;28;20151;-82
2021/04/22 04:48:24;;;;;;;21.13;7.03;;;;;;;3.25;83.52;101960.72;5064820;28;20416;-79
2021/04/22 04:50:49;;;;;;;20.52;7.78;;;;;;;3.29;83.80;101956.94;5013520;28;20061;-78
2021/04/22 04:53:15;;;;;;;22.95;8.25;;;;;;;3.35;83.54;101960.09;5060852;28;20047;-82
2021/04/22 04:55:40;;;;;;;18.35;7.18;;;;;;;3.39;83.86;101959.00;5034639;28;20047;-77
2021/04/22 04:58:05;;;;;;;24.40;6.97;;;;;;;3.30;83.90;101962.16;5065172;28;20037;-78
2021/04/22 05:00:31;;;;;;;26.48;8.02;;;;;;;3.38;83.49;101962.56;5049375;28;20079;-80
2021/04/22 05:02:56;;;;;;;19.60;7.13;;;;;;;3.46;83.07;101971.91;5060176;28;20380;-77
2021/04/22 05:05:22;;;;;;;16.95;6.88;;;;;;;3.49;82.98;101977.03;5059905;28;20059;-80
2021/04/22 05:07:47;;;;;;;17.80;7.07;;;;;;;3.56;83.27;101979.22;5043680;28;20072;-77
2021/04/22 05:10:13;;;;;;;21.85;6.93;;;;;;;3.60;82.67;101975.44;5041886;28;20121;-80
2021/04/22 05:12:39;;;;;;;21.52;6.65;;;;;;;3.63;82.39;101978.88;5043167;28;20041;-78
2021/04/22 05:15:06;;;;;;;21.17;6.25;;;;;;;3.64;82.41;101984.09;5062941;28;20047;-82
2021/04/22 05:17:31;;;;;;;20.08;6.50;;;;;;;3.70;82.52;101991.69;5047793;28;20052;-78
2021/04/22 05:19:57;;;;;;;16.90;6.78;;;;;;;3.79;82.55;101990.28;5064229;28;20094;-75
2021/04/22 05:22:22;;;;;;;25.63;7.65;;;;;;;3.77;81.90;101993.03;5065343;28;20068;-80
2021/04/22 05:24:48;;;;;;;18.05;6.43;;;;;;;3.78;82.05;102007.16;5063265;28;20041;-79
2021/04/22 05:27:14;;;;;;;14.63;6.57;;;;;;;3.83;82.55;102002.44;5047209;28;20485;-78
2021/04/22 05:29:39;;;;;;;16.88;6.15;;;;;;;3.91;82.62;102007.28;5034339;28;20082;-79
2021/04/22 05:32:05;;;;;;;22.15;6.60;;;;;;;3.89;82.14;102001.22;5063307;28;20066;-77
2021/04/22 05:34:31;;;;;;;16.10;6.13;;;;;;;3.89;81.78;102002.06;5034319;28;20120;-78
2021/04/22 05:36:56;;;;;;;17.35;6.00;;;;;;;3.97;81.62;101999.81;5072234;28;20089;-81
2021/04/22 05:39:22;;;;;;;18.27;6.45;;;;;;;3.98;81.12;102003.31;5065004;28;20044;-80
2021/04/22 05:41:49;;;;;;;17.65;5.75;;;;;;;4.05;80.62;102012.63;5072532;28;20041;-75
2021/04/22 05:44:14;;;;;;;19.73;6.03;;;;;;;4.04;80.77;102010.91;5070016;28;20556;-81
2021/04/22 05:46:40;;;;;;;13.80;6.43;;;;;;;4.13;80.16;102012.16;5049887;28;20049;-79
2021/04/22 05:49:06;;;;;;;21.02;7.10;;;;;;;4.17;80.42;102016.34;5069359;28;20349;-81
2021/04/22 05:51:31;;;;;;;18.88;6.30;;;;;;;4.25;79.94;102020.22;5051740;28;20489;-84
2021/04/22 05:53:57;;;;;;;17.52;6.07;;;;;;;4.25;79.85;102017.56;5052359;28;20067;-78
2021/04/22 05:56:22;;;;;;;19.25;6.68;;;;;;;4.21;80.05;102017.88;5036254;28;20071;-82
2021/04/22 05:58:48;;;;;;;22.50;5.93;;;;;;;4.24;79.47;102020.34;5050431;28;20087;-80
2021/04/22 06:01:13;;;;;;;17.42;6.90;;;;;;;4.38;79.93;102023.00;5051156;28;20044;-82
2021/04/22 06:03:39;;;;;;;20.50;6.50;;;;;;;4.34;79.36;102029.44;5064857;28;20041;-79
2021/04/22 06:06:04;;;;;;;15.65;5.70;;;;;;;4.40;79.73;102022.91;5052439;28;20388;-78
2021/04/22 06:08:30;;;;;;;21.15;7.15;;;;;;;4.49;79.09;102027.69;5053293;28;20046;-81
2021/04/22 06:10:55;;;;;;;16.73;5.20;;;;;;;4.51;78.76;102028.41;5051594;28;20045;-77
2021/04/22 06:13:20;;;;;;;15.27;5.95;;;;;;;4.61;78.69;102034.88;5066831;28;20045;-81
2021/04/22 06:15:46;;;;;;;17.02;6.53;;;;;;;4.58;78.66;102027.09;5069617;28;20135;-79
2021/04/22 06:18:11;;;;;;;15.93;6.95;;;;;;;4.64;78.44;102028.53;5067036;28;20311;-75
2021/04/22 06:20:37;;;;;;;19.00;6.30;;;;;;;4.64;78.83;102033.84;5053531;28;20033;-82
2021/04/22 06:23:02;;;;;;;17.88;5.90;;;;;;;4.70;78.66;102036.13;5035598;28;20465;-81
2021/04/22 06:25:28;;;;;;;14.75;5.93;;;;;;;4.74;78.05;102033.16;5069279;28;20043;-78
2021/04/22 06:27:58;;;;;;;14.75;6.18;;;;;;;4.77;78.13;102045.41;5070307;28;20083;-82
2021/04/22 06:30:24;;;;;;;14.52;5.28;;;;;;;4.86;77.66;102036.00;5046504;28;20496;-82
2021/04/22 06:32:49;;;;;;;15.38;5.63;;;;;;;4.94;78.19;102034.56;5071614;28;20051;-86
2021/04/22 06:35:15;;;;;;;18.40;6.13;;;;;;;5.07;77.46;102042.63;5051611;28;20044;-85
2021/04/22 06:37:44;;;;;;;12.93;5.20;;;;;;;5.08;77.79;102051.47;5051442;28;20036;-84
2021/04/22 06:40:14;;;;;;;14.82;5.57;;;;;;;5.22;77.54;102055.91;5069048;28;20072;-81
2021/04/22 06:42:40;;;;;;;15.70;5.35;;;;;;;5.20;76.75;102062.16;5051869;28;20041;-81
2021/04/22 06:45:09;;;;;;;14.55;5.63;;;;;;;5.22;76.48;102058.56;5050732;28;20048;-80
2021/04/22 06:47:35;;;;;;;17.00;5.47;;;;;;;5.25;76.30;102063.69;5064871;28;20047;-83
2021/04/22 06:50:01;;;;;;;17.38;5.20;;;;;;;5.35;77.18;102064.78;5063488;28;20424;-81
2021/04/22 06:52:26;;;;;;;14.93;5.03;;;;;;;5.44;76.95;102074.88;5045904;28;20053;-77
2021/04/22 06:54:52;;;;;;;15.45;5.05;;;;;;;5.52;76.35;102066.34;5069923;28;20523;-80
2021/04/22 06:57:17;;;;;;;11.52;4.65;;;;;;;5.63;76.28;102069.16;5047788;28;20061;-83
2021/04/22 06:59:42;;;;;;;15.13;5.28;;;;;;;5.68;75.27;102068.88;5050611;28;20039;-80
2021/04/22 07:02:09;;;;;;;17.05;5.03;;;;;;;5.71;74.89;102069.53;5056992;28;20527;-82
2021/04/22 07:04:36;;;;;;;17.10;4.50;;;;;;;5.78;74.40;102070.84;5067452;28;20053;-81
2021/04/22 07:07:01;;;;;;;12.32;4.65;;;;;;;5.79;73.78;102069.03;5045251;28;20139;-76
2021/04/22 07:09:27;;;;;;;16.20;4.40;;;;;;;5.82;73.74;102068.81;5062369;28;20119;-85
2021/04/22 07:11:53;;;;;;;14.05;4.68;;;;;;;5.89;73.40;102073.63;5063975;28;20052;-78
2021/04/22 07:14:19;;;;;;;12.20;4.43;;;;;;;5.92;72.86;102077.88;5030390;28;20524;-77
2021/04/22 07:16:44;;;;;;;15.45;4.43;;;;;;;6.05;73.04;102085.97;5048289;28;20052;-82
2021/04/22 07:19:10;;;;;;;13.88;4.38;;;;;;;6.15;72.70;102081.69;5045898;28;20032;-83
2021/04/22 07:21:35;;;;;;;13.70;4.20;;;;;;;6.22;72.48;102085.69;5044498;28;20084;-85
2021/04/22 07:24:03;;;;;;;12.70;3.88;;;;;;;6.18;71.61;102080.66;5044139;28;20045;-82
2021/04/22 07:26:28;;;;;;;18.52;4.78;;;;;;;6.19;71.42;102082.38;5045469;28;20347;-81
2021/04/22 07:28:55;;;;;;;14.52;4.53;;;;;;;6.25;71.37;102087.28;5027821;28;20049;-79
2021/04/22 07:31:20;;;;;;;16.15;4.35;;;;;;;6.32;71.63;102081.41;5066251;28;20106;-80
2021/04/22 07:33:47;;;;;;;14.05;4.85;;;;;;;6.44;71.65;102086.84;5065674;28;20049;-83
2021/04/22 07:36:12;;;;;;;10.73;4.70;;;;;;;6.54;71.34;102087.94;5065279;28;20044;-80
2021/04/22 07:38:37;;;;;;;13.80;3.75;;;;;;;6.55;71.50;102086.97;5068602;28;20044;-78
2021/04/22 07:41:03;;;;;;;16.05;4.22;;;;;;;6.67;70.62;102083.44;5048711;28;20485;-83
2021/04/22 07:43:28;;;;;;;10.65;3.10;;;;;;;6.77;68.68;102086.34;5049901;28;20044;-78
2021/04/22 07:45:54;;;;;;;13.00;3.90;;;;;;;6.82;67.45;102092.19;5051041;28;20511;-76
2021/04/22 07:48:19;;;;;;;12.98;3.85;;;;;;;6.86;67.11;102088.34;5047497;28;20523;-80
2021/04/22 07:50:45;;;;;;;14.55;4.03;;;;;;;6.93;66.32;102100.31;5042006;28;20083;-81
2021/04/22 07:53:11;;;;;;;11.10;3.95;;;;;;;6.92;65.55;102092.41;5066306;28;20382;-79
2021/04/22 07:55:44;;;;;;;13.70;3.55;;;;;;;6.93;65.41;102097.63;5059123;28;20041;-85
2021/04/22 07:58:11;;;;;;;15.57;2.95;;;;;;;6.97;65.03;102091.09;5043581;28;20405;-78
2021/04/22 08:00:38;;;;;;;9.55;3.58;;;;;;;6.97;64.40;102095.59;5047925;28;20074;-84
2021/04/22 08:03:03;;;;;;;13.65;3.13;;;;;;;6.95;64.72;102093.03;5049498;28;20064;-80
2021/04/22 08:05:32;;;;;;;12.90;3.35;;;;;;;6.91;63.77;102107.56;5068755;28;20067;-77
2021/04/22 08:07:59;;;;;;;10.55;3.22;;;;;;;7.00;63.73;102096.22;5065352;28;20049;-80
2021/04/22 08:10:28;;;;;;;12.13;3.28;;;;;;;7.01;63.68;102103.25;5065628;28;20086;-78
2021/04/22 08:12:54;;;;;;;13.55;4.13;;;;;;;7.05;64.25;102100.38;5031380;28;20052;-78
2021/04/22 08:15:20;;;;;;;9.55;3.72;;;;;;;7.15;63.58;102093.41;5047458;28;20059;-82
2021/04/22 08:17:46;;;;;;;9.43;3.17;;;;;;;7.22;62.41;102100.00;5051635;28;20051;-81
2021/04/22 08:20:20;;;;;;;11.88;3.30;;;;;;;7.27;63.00;102105.03;5068357;28;20033;-81
2021/04/22 08:22:48;;;;;;;12.82;3.00;;;;;;;7.33;62.88;102108.09;5062146;28;20036;-75
2021/04/22 08:25:19;;;;;;;12.60;3.65;;;;;;;7.38;62.45;102105.97;5064046;28;20389;-75
2021/04/22 08:27:50;;;;;;;13.98;3.47;;;;;;;7.40;62.73;102103.19;5049012;28;20107;-80
2021/04/22 08:30:19;;;;;;;12.38;3.63;;;;;;;7.39;63.33;102112.16;5063291;28;20040;-85
2021/04/22 08:32:44;;;;;;;12.45;3.55;;;;;;;7.43;63.20;102113.66;5060393;28;20511;-84
2021/04/22 08:35:10;;;;;;;14.75;3.67;;;;;;;7.39;62.12;102107.69;5062528;28;20052;-82
2021/04/22 08:37:37;;;;;;;9.93;3.40;;;;;;;7.36;62.39;102112.38;5043136;28;20385;-83
2021/04/22 08:40:10;;;;;;;10.75;3.15;;;;;;;7.38;61.89;102111.31;5064593;28;20044;-79
2021/04/22 08:42:37;;;;;;;13.48;3.05;;;;;;;7.34;61.05;102115.16;5064180;28;20048;-83
2021/04/22 08:45:05;;;;;;;14.88;3.15;;;;;;;7.29;60.63;102106.63;5064495;28;20033;-83
2021/04/22 08:47:32;;;;;;;15.02;3.47;;;;;;;7.31;61.77;102120.72;5043642;28;20093;-80
2021/04/22 08:49:57;;;;;;;11.40;2.97;;;;;;;7.42;61.01;102123.47;5047250;28;20492;-84
2021/04/22 08:52:23;;;;;;;14.32;3.47;;;;;;;7.64;62.17;102116.56;5064438;28;20064;-83
2021/04/22 08:54:51;;;;;;;12.23;3.70;;;;;;;7.79;60.27;102112.75;5065312;28;20097;-82
2021/04/22 08:57:16;;;;;;;9.73;3.90;;;;;;;7.94;60.39;102112.56;5067518;28;20066;-83
2021/04/22 08:59:42;;;;;;;15.07;3.65;;;;;;;7.98;58.97;102109.56;5050254;28;20290;-86
2021/04/22 09:02:08;;;;;;;12.10;2.97;;;;;;;8.05;59.73;102125.97;5061147;28;20044;-80
2021/04/22 09:04:34;;;;;;;12.20;3.85;;;;;;;8.18;59.80;102112.56;5045755;28;20547;-78
2021/04/22 09:06:59;;;;;;;12.40;4.65;;;;;;;8.26;57.78;102127.06;5030277;28;20033;-77
2021/04/22 09:09:25;;;;;;;11.85;3.88;;;;;;;8.40;57.81;102122.47;5024086;28;20102;-83
2021/04/22 09:11:50;;;;;;;10.10;3.35;;;;;;;8.57;57.80;102130.94;5046959;28;20320;-79
2021/04/22 09:14:19;;;;;;;11.82;3.33;;;;;;;8.56;56.59;102105.13;5046682;28;20397;-87
2021/04/22 09:16:45;;;;;;;12.87;3.67;;;;;;;8.68;57.69;102122.06;5063739;28;20519;-81
2021/04/22 09:19:21;;;;;;;12.75;3.25;;;;;;;8.70;56.54;102127.31;5059603;28;20189;-79
2021/04/22 09:21:56;;;;;;;11.73;3.53;;;;;;;8.71;57.31;102121.81;5035120;28;20036;-80
2021/04/22 09:24:24;;;;;;;12.13;3.55;;;;;;;8.61;57.51;102120.84;5042701;28;20043;-79
2021/04/22 09:27:04;;;;;;;12.27;3.90;;;;;;;8.51;56.91;102125.19;5042595;28;20036;-84
2021/04/22 09:29:32;;;;;;;13.20;3.50;;;;;;;8.45;57.49;102133.69;5062361;28;20201;-82
2021/04/22 09:32:17;;;;;;;10.20;3.00;;;;;;;8.43;57.53;102127.59;5045210;28;20129;-81
2021/04/22 09:34:50;;;;;;;14.80;4.07;;;;;;;8.41;57.98;102138.44;5047067;28;20045;-83
2021/04/22 09:37:17;;;;;;;12.82;4.38;;;;;;;8.55;58.04;102129.34;5058695;28;20480;-83
2021/04/22 09:39:45;;;;;;;10.68;3.47;;;;;;;8.85;57.44;102130.59;5048649;28;20090;-84
2021/04/22 09:42:13;;;;;;;8.95;3.63;;;;;;;8.97;56.38;102127.81;5058125;28;20553;-85
2021/04/22 09:44:41;;;;;;;14.30;3.65;;;;;;;9.14;55.92;102122.94;5048506;28;20091;-87
2021/04/22 09:47:10;;;;;;;11.07;3.55;;;;;;;9.36;55.84;102132.78;5041618;28;20040;-80
2021/04/22 09:49:56;;;;;;;10.40;3.15;;;;;;;9.27;56.30;102127.19;5064310;28;20044;-80
2021/04/22 09:52:21;;;;;;;11.38;3.25;;;;;;;9.12;55.62;102120.41;5040969;28;20101;-86
2021/04/22 09:54:53;;;;;;;12.68;3.70;;;;;;;8.90;57.04;102120.41;5047115;28;20048;-78
2021/04/22 09:57:31;;;;;;;15.75;4.80;;;;;;;8.88;55.51;102120.50;5059435;28;20044;-79
2021/04/22 09:59:59;;;;;;;10.48;4.03;;;;;;;8.87;57.84;102097.38;5049266;28;20074;-78
2021/04/22 10:02:25;;;;;;;8.13;3.65;;;;;;;8.93;56.52;102122.81;5068159;28;20599;-79
2021/04/22 10:04:53;;;;;;;14.90;4.95;;;;;;;8.98;57.00;102121.50;5047334;28;20044;-82
2021/04/22 10:07:22;;;;;;;12.20;3.90;;;;;;;9.01;55.30;102129.28;5067199;28;20233;-81
2021/04/22 10:09:48;;;;;;;11.80;3.58;;;;;;;9.18;56.96;102130.63;5051057;28;20064;-82
2021/04/22 10:12:23;;;;;;;12.20;3.50;;;;;;;9.34;55.22;102132.06;5069313;28;20063;-82
2021/04/22 10:14:49;;;;;;;12.95;3.75;;;;;;;9.17;55.75;102128.91;5061446;28;20524;-83
2021/04/22 10:17:20;;;;;;;12.50;3.47;;;;;;;9.10;54.95;102125.00;5063328;28;20048;-85
2021/04/22 10:20:10;;;;;;;11.85;3.80;;;;;;;9.14;55.59;102128.28;5049151;28;20396;-80
2021/04/22 10:22:43;;;;;;;13.73;3.50;;;;;;;9.10;55.85;102132.22;5046347;28;20048;-86
2021/04/22 10:25:11;;;;;;;9.00;3.92;;;;;;;9.23;56.09;102135.59;5049051;28;20175;-82
2021/04/22 10:27:37;;;;;;;12.32;3.70;;;;;;;9.51;55.46;102123.50;5068689;28;20048;-84
2021/04/22 10:30:07;;;;;;;12.98;4.35;;;;;;;9.43;53.52;102121.44;5067044;28;20555;-83
2021/04/22 10:32:33;;;;;;;12.30;3.88;;;;;;;9.47;56.51;102117.56;5051184;28;20163;-84
2021/04/22 10:34:58;;;;;;;9.20;3.63;;;;;;;9.64;56.18;102121.53;5041891;28;20128;-83
2021/04/22 10:37:26;;;;;;;9.40;3.67;;;;;;;9.51;55.23;102118.16;5048801;28;20128;-80
2021/04/22 10:39:56;;;;;;;9.55;4.03;;;;;;;9.33;56.26;102120.50;5068087;28;20047;-85
2021/04/22 10:42:22;;;;;;;10.95;3.72;;;;;;;9.43;56.63;102113.41;5064246;28;20105;-77
2021/04/22 10:44:51;;;;;;;14.80;4.25;;;;;;;9.60;55.84;102119.22;5064899;28;20047;-84
2021/04/22 10:47:22;;;;;;;12.25;4.95;;;;;;;9.80;55.89;102109.53;5033745;28;20048;-84
2021/04/22 10:49:49;;;;;;;10.27;4.20;;;;;;;9.86;54.30;102122.44;5020056;28;20044;-80
2021/04/22 10:52:15;;;;;;;10.55;4.15;;;;;;;10.04;53.93;102114.69;5047933;28;20033;-79
2021/04/22 10:54:42;;;;;;;9.13;3.83;;;;;;;10.11;52.76;102121.25;5054745;28;20059;-86
2021/04/22 10:57:11;;;;;;;8.82;3.95;;;;;;;10.17;54.94;102113.53;5072574;28;20052;-85
2021/04/22 10:59:37;;;;;;;;;;;;;;;10.49;53.67;102109.97;5072718;28;20048;-81
2021/04/22 11:02:40;;;;;;;11.40;3.97;;;;;;;10.45;53.06;102123.78;5070907;28;19916;-80
2021/04/22 11:05:20;;;;;;;10.40;3.80;;;;;;;10.60;53.70;102117.09;5022797;28;20083;-82
2021/04/22 11:08:05;;;;;;;9.48;4.05;;;;;;;10.54;52.05;102126.53;5053153;28;20053;-82
2021/04/22 11:10:41;;;;;;;8.43;3.47;;;;;;;10.56;52.43;102121.88;5051150;28;20041;-84
2021/04/22 11:13:14;;;;;;;9.75;3.55;;;;;;;10.75;52.05;102114.91;5069517;28;20044;-78
2021/04/22 11:15:44;;;;;;;9.15;3.85;;;;;;;10.79;52.90;102109.16;5037722;28;20044;-81
2021/04/22 11:18:13;;;;;;;12.63;4.22;;;;;;;10.94;51.70;102120.41;5067571;28;20106;-87
2021/04/22 11:20:42;;;;;;;6.55;3.42;;;;;;;10.77;51.09;102121.84;5041156;28;20044;-78
2021/04/22 11:23:15;;;;;;;;;;;;;;;10.61;52.46;102108.91;5064369;28;20104;-76
2021/04/22 11:25:53;;;;;;;9.98;3.83;;;;;;;10.55;51.06;102119.31;5045100;28;19921;-85